Time;durP1;ratioP1;P1;durP2;ratioP2;P2;SDS_P1;SDS_P2;PMS_P1;PMS_P2;Temp;Humidity;BMP_temperature;BMP_pressure;BME280_temperature;BME280_humidity;BME280_pressure;Samples;Min_cycle;Max_cycle;Signal;HPM_P1;HPM_P2
2023/10/24 00:01:49;;;;;;;;;;;;;;;10.68;100.00;100180.97;5025446;28;1027;-79
2023/10/24 00:04:14;;;;;;;;;;;;;;;10.68;100.00;100182.75;5032625;28;1141;-78
2023/10/24 00:06:39;;;;;;;;;;;;;;;10.68;100.00;100180.16;5022888;28;1898;-78
2023/10/24 00:09:05;;;;;;;;;;;;;;;10.70;100.00;100183.41;5015977;28;1192;-78
2023/10/24 00:11:30;;;;;;;;;;;;;;;10.72;100.00;100181.47;5033632;28;1112;-78
2023/10/24 00:13:55;;;;;;;;;;;;;;;10.72;100.00;100173.69;5028594;28;1259;-80
2023/10/24 00:16:20;;;;;;;;;;;;;;;10.75;100.00;100170.84;5026379;28;1055;-79
2023/10/24 00:18:46;;;;;;;;;;;;;;;10.75;100.00;100173.44;5031044;28;1119;-79
2023/10/24 00:21:11;;;;;;;;;;;;;;;10.76;100.00;100172.47;5029226;28;993;-79
2023/10/24 00:23:36;;;;;;;;;;;;;;;10.78;100.00;100165.34;5020049;28;1218;-79
2023/10/24 00:26:04;;;;;;;;;;;;;;;10.78;100.00;100160.16;5019077;28;1906;-78
2023/10/24 00:28:30;;;;;;;;;;;;;;;10.80;100.00;100163.44;5028472;28;1053;-79
2023/10/24 00:30:55;;;;;;;;;;;;;;;10.81;100.00;100159.88;5019226;28;1148;-79
2023/10/24 00:33:20;;;;;;;;;;;;;;;10.82;100.00;100162.34;5025734;28;1558;-80
2023/10/24 00:35:45;;;;;;;;;;;;;;;10.83;100.00;100157.97;5031632;28;1335;-79
2023/10/24 00:38:11;;;;;;;;;;;;;;;10.83;100.00;100163.97;5030678;28;1359;-78
2023/10/24 00:40:36;;;;;;;;;;;;;;;10.84;100.00;100160.44;5017693;28;1180;-79
2023/10/24 00:43:02;;;;;;;;;;;;;;;10.85;100.00;100150.88;5016387;28;1216;-79
2023/10/24 00:45:28;;;;;;;;;;;;;;;10.83;100.00;100152.78;5012785;28;1909;-79
2023/10/24 00:47:53;;;;;;;;;;;;;;;10.83;100.00;100152.78;5038655;28;1511;-78
2023/10/24 00:50:18;;;;;;;;;;;;;;;10.84;100.00;100159.63;5027782;28;1516;-78
2023/10/24 00:52:46;;;;;;;;;;;;;;;10.83;100.00;100148.41;5032430;28;1172;-79
2023/10/24 00:55:13;;;;;;;;;;;;;;;10.82;100.00;100156.34;5022770;28;1277;-79
2023/10/24 00:57:38;;;;;;;;;;;;;;;10.84;100.00;100159.63;5034317;28;1263;-79
2023/10/24 01:00:04;;;;;;;;;;;;;;;10.84;100.00;100154.44;5031840;28;1511;-79
2023/10/24 01:02:29;;;;;;;;;;;;;;;10.83;100.00;100163.16;5033239;28;1273;-78
2023/10/24 01:04:54;;;;;;;;;;;;;;;10.83;100.00;100157.97;5030302;28;1420;-78
2023/10/24 01:07:20;;;;;;;;;;;;;;;10.82;100.00;100151.97;5013134;28;1882;-79
2023/10/24 01:09:45;;;;;;;;;;;;;;;10.82;100.00;100157.16;5031368;28;1353;-78
2023/10/24 01:12:10;;;;;;;;;;;;;;;10.83;100.00;100152.78;5012157;28;1356;-80
2023/10/24 01:14:35;;;;;;;;;;;;;;;10.83;100.00;100157.97;5028165;28;1340;-79
2023/10/24 01:17:08;;;;;;;;;;;;;;;10.82;100.00;100161.53;5011488;28;1283;-79
2023/10/24 01:19:33;;;;;;;;;;;;;;;10.82;100.00;100157.16;5015447;28;1394;-78
2023/10/24 01:21:58;;;;;;;;;;;;;;;10.82;100.00;100156.34;5009372;28;1175;-80
2023/10/24 01:24:23;;;;;;;;;;;;;;;10.82;100.00;100157.16;5036595;28;1089;-79
2023/10/24 01:26:50;;;;;;;;;;;;;;;10.82;100.00;100157.16;5028497;28;1902;-79
2023/10/24 01:29:15;;;;;;;;;;;;;;;10.82;100.00;100151.97;5027096;28;1010;-78
2023/10/24 01:31:40;;;;;;;;;;;;;;;10.82;100.00;100146.78;5024155;28;1433;-78
2023/10/24 01:34:05;;;;;;;;;;;;;;;10.82;100.00;100151.16;5007346;28;1204;-79
2023/10/24 01:36:30;;;;;;;;;;;;;;;10.83;100.00;100150.19;5015364;28;1316;-79
2023/10/24 01:38:56;;;;;;;;;;;;;;;10.83;100.00;100147.59;5034273;28;1054;-79
2023/10/24 01:41:21;;;;;;;;;;;;;;;10.84;100.00;100149.25;5035035;28;1105;-77
2023/10/24 01:43:47;;;;;;;;;;;;;;;10.83;100.00;100145.00;5032885;28;1017;-78
2023/10/24 01:46:12;;;;;;;;;;;;;;;10.81;100.00;100144.31;5028079;28;1922;-79
2023/10/24 01:48:37;;;;;;;;;;;;;;;10.83;100.00;100147.59;5015368;28;1122;-78
2023/10/24 01:51:03;;;;;;;;;;;;;;;10.83;100.00;100157.97;5029502;28;1337;-78
2023/10/24 01:53:28;;;;;;;;;;;;;;;10.83;100.00;100147.59;5033773;28;1296;-78
2023/10/24 01:55:53;;;;;;;;;;;;;;;10.82;100.00;100145.97;5035358;28;1243;-78
2023/10/24 01:58:18;;;;;;;;;;;;;;;10.82;100.00;100145.97;5013840;28;1376;-78
2023/10/24 02:00:43;;;;;;;;;;;;;;;10.82;100.00;100140.78;5038869;28;1185;-78
2023/10/24 02:03:09;;;;;;;;;;;;;;;10.81;100.00;100139.94;5034751;28;1320;-78
2023/10/24 02:05:35;;;;;;;;;;;;;;;10.83;100.00;100147.59;5012034;28;1965;-78
2023/10/24 02:08:00;;;;;;;;;;;;;;;10.81;100.00;100134.75;5022745;28;1248;-78
2023/10/24 02:10:25;;;;;;;;;;;;;;;10.80;100.00;100129.72;5019915;28;1263;-78
2023/10/24 02:12:50;;;;;;;;;;;;;;;10.80;100.00;100132.31;5023146;28;1108;-78
2023/10/24 02:15:16;;;;;;;;;;;;;;;10.80;100.00;100132.31;5027306;28;1251;-78
2023/10/24 02:17:41;;;;;;;;;;;;;;;10.79;100.00;100135.88;5024377;28;1258;-78
2023/10/24 02:20:07;;;;;;;;;;;;;;;10.77;100.00;100130.00;5023563;28;1333;-78
2023/10/24 02:22:33;;;;;;;;;;;;;;;10.76;100.00;100130.97;5031875;28;1233;-79
2023/10/24 02:24:58;;;;;;;;;;;;;;;10.75;100.00;100131.94;5025149;28;1153;-78
2023/10/24 02:27:23;;;;;;;;;;;;;;;10.73;100.00;100120.91;5032397;28;1947;-79
2023/10/24 02:29:48;;;;;;;;;;;;;;;10.71;100.00;100127.97;5013098;28;1273;-79
2023/10/24 02:32:13;;;;;;;;;;;;;;;10.69;100.00;100135.91;5014342;28;1148;-78
2023/10/24 02:34:38;;;;;;;;;;;;;;;10.69;100.00;100129.91;5030789;28;1227;-78
2023/10/24 02:37:04;;;;;;;;;;;;;;;10.68;100.00;100133.47;5018628;28;1273;-80
2023/10/24 02:39:29;;;;;;;;;;;;;;;10.66;100.00;100135.38;5031159;28;1178;-78
2023/10/24 02:41:54;;;;;;;;;;;;;;;10.64;100.00;100128.56;5016075;28;1256;-78
2023/10/24 02:44:20;;;;;;;;;;;;;;;10.62;100.00;100140.84;5032131;28;1216;-78
2023/10/24 02:46:45;;;;;;;;;;;;;;;10.63;100.00;100139.91;5031705;28;1957;-78
2023/10/24 02:49:10;;;;;;;;;;;;;;;10.60;100.00;100144.53;5029830;28;1223;-78
2023/10/24 02:51:36;;;;;;;;;;;;;;;10.57;100.00;100143.06;5016144;28;1210;-78
2023/10/24 02:54:01;;;;;;;;;;;;;;;10.59;100.00;100150.69;5030009;28;1217;-78
2023/10/24 02:56:26;;;;;;;;;;;;;;;10.55;100.00;100151.91;5019309;28;1351;-79
2023/10/24 02:58:52;;;;;;;;;;;;;;;10.55;100.00;100159.69;5029053;28;1272;-78
2023/10/24 03:01:18;;;;;;;;;;;;;;;10.56;100.00;100167.34;5016852;28;1552;-78
2023/10/24 03:03:43;;;;;;;;;;;;;;;10.53;100.00;100157.25;5014858;28;1578;-78
2023/10/24 03:06:15;;;;;;;;;;;;;;;10.52;100.00;100158.22;5023950;28;1951;-78
2023/10/24 03:08:40;;;;;;;;;;;;;;;10.52;100.00;100163.41;5030657;28;1216;-78
2023/10/24 03:11:06;;;;;;;;;;;;;;;10.50;100.00;100167.09;5024708;28;1586;-79
2023/10/24 03:13:31;;;;;;;;;;;;;;;10.48;100.00;100154.25;5007600;28;1276;-78
2023/10/24 03:16:00;;;;;;;;;;;;;;;10.48;100.00;100164.63;5021263;28;1288;-80
2023/10/24 03:18:26;;;;;;;;;;;;;;;10.46;100.00;100156.19;5007150;28;1525;-78
2023/10/24 03:20:51;;;;;;;;;;;;;;;10.45;100.00;100158.94;5010865;28;1367;-78
2023/10/24 03:23:16;;;;;;;;;;;;;;;10.44;100.00;100163.31;5017949;28;1062;-78
2023/10/24 03:25:41;;;;;;;;;;;;;;;10.43;100.00;100159.03;5031356;28;1894;-79
2023/10/24 03:28:06;;;;;;;;;;;;;;;10.43;100.00;100172.00;5020398;28;1465;-78
2023/10/24 03:30:32;;;;;;;;;;;;;;;10.43;100.00;100164.22;5026853;28;1044;-78
2023/10/24 03:32:57;;;;;;;;;;;;;;;10.43;100.00;100166.81;5034959;28;1096;-78
2023/10/24 03:35:22;;;;;;;;;;;;;;;10.42;100.00;100170.38;5023513;28;1142;-78
2023/10/24 03:37:47;;;;;;;;;;;;;;;10.43;100.00;100161.63;5027049;28;1100;-77
2023/10/24 03:40:12;;;;;;;;;;;;;;;10.43;100.00;100164.22;5031750;28;1041;-78
2023/10/24 03:42:38;;;;;;;;;;;;;;;10.42;100.00;100165.19;5030356;28;1064;-79
2023/10/24 03:45:03;;;;;;;;;;;;;;;10.39;100.00;100165.50;5012339;28;1189;-78
2023/10/24 03:47:28;;;;;;;;;;;;;;;10.38;100.00;100174.22;5024774;28;1954;-78
2023/10/24 03:49:53;;;;;;;;;;;;;;;10.37;100.00;100172.56;5035571;28;1280;-78
2023/10/24 03:52:19;;;;;;;;;;;;;;;10.35;100.00;100169.31;5034297;28;1321;-78
2023/10/24 03:54:44;;;;;;;;;;;;;;;10.35;100.00;100169.31;5018548;28;1250;-79
2023/10/24 03:57:09;;;;;;;;;;;;;;;10.34;100.00;100165.91;5014917;28;1377;-78
2023/10/24 03:59:34;;;;;;;;;;;;;;;10.34;100.00;100167.69;5031903;28;1236;-78
2023/10/24 04:02:00;;;;;;;;;;;;;;;10.32;100.00;100164.41;5005431;28;1381;-78
2023/10/24 04:04:25;;;;;;;;;;;;;;;10.31;100.00;100167.94;5023340;28;1181;-78
2023/10/24 04:06:51;;;;;;;;;;;;;;;10.29;100.00;100164.69;5015051;28;1886;-80
2023/10/24 04:09:16;;;;;;;;;;;;;;;10.28;100.00;100178.59;5013950;28;1352;-80
2023/10/24 04:11:41;;;;;;;;;;;;;;;10.27;100.00;100182.16;5027004;28;1196;-77
2023/10/24 04:14:07;;;;;;;;;;;;;;;10.26;100.00;100172.72;5028758;28;1320;-78
2023/10/24 04:16:32;;;;;;;;;;;;;;;10.25;100.00;100177.09;5032916;28;1189;-78
2023/10/24 04:18:58;;;;;;;;;;;;;;;10.26;100.00;100170.13;5030935;28;1277;-78
2023/10/24 04:21:23;;;;;;;;;;;;;;;10.24;100.00;100172.06;5028854;28;1266;-80
2023/10/24 04:23:48;;;;;;;;;;;;;;;10.24;100.00;100166.88;5027088;28;1289;-80
2023/10/24 04:26:13;;;;;;;;;;;;;;;10.22;100.00;100171.34;5026910;28;1961;-78
2023/10/24 04:28:39;;;;;;;;;;;;;;;10.24;100.00;100161.69;5027554;28;1359;-78
2023/10/24 04:31:04;;;;;;;;;;;;;;;10.23;100.00;100160.03;5013497;28;1289;-78
2023/10/24 04:33:29;;;;;;;;;;;;;;;10.20;100.00;100160.28;5032562;28;1272;-78
2023/10/24 04:35:54;;;;;;;;;;;;;;;10.21;100.00;100149.00;5013347;28;1350;-78
2023/10/24 04:38:20;;;;;;;;;;;;;;;10.20;100.00;100149.94;5037022;28;1151;-78
2023/10/24 04:40:46;;;;;;;;;;;;;;;10.21;100.00;100151.59;5030423;28;1251;-79
2023/10/24 04:43:11;;;;;;;;;;;;;;;10.20;100.00;100139.56;5026735;28;1189;-77
2023/10/24 04:45:52;;;;;;;;;;;;;;;10.19;100.00;100137.94;5000879;28;1906;-78
2023/10/24 04:48:17;;;;;;;;;;;;;;;10.19;100.00;100127.56;5030866;28;1554;-78
2023/10/24 04:50:42;;;;;;;;;;;;;;;10.17;100.00;100134.69;5014998;28;1217;-79
2023/10/24 04:53:08;;;;;;;;;;;;;;;10.19;100.00;100133.56;5034153;28;1258;-79
2023/10/24 04:55:33;;;;;;;;;;;;;;;10.16;100.00;100136.47;5009908;28;1374;-78
2023/10/24 04:57:59;;;;;;;;;;;;;;;10.13;100.00;100134.13;5034326;28;1394;-78
2023/10/24 05:00:27;;;;;;;;;;;;;;;10.17;100.00;100140.69;5031575;28;1226;-78
2023/10/24 05:02:52;;;;;;;;;;;;;;;10.18;100.00;100146.66;5026869;28;1198;-78
2023/10/24 05:05:17;;;;;;;;;;;;;;;10.15;100.00;100146.94;5033137;28;1918;-78
2023/10/24 05:07:42;;;;;;;;;;;;;;;10.15;100.00;100136.56;5027494;28;1201;-78
2023/10/24 05:10:08;;;;;;;;;;;;;;;10.15;100.00;100131.38;5028594;28;1107;-80
2023/10/24 05:12:33;;;;;;;;;;;;;;;10.15;100.00;100136.56;5028354;28;1562;-78
2023/10/24 05:14:58;;;;;;;;;;;;;;;10.13;100.00;100133.31;5022524;28;1093;-78
2023/10/24 05:17:24;;;;;;;;;;;;;;;10.13;100.00;100133.31;5009585;28;1393;-78
2023/10/24 05:19:49;;;;;;;;;;;;;;;10.14;100.00;100145.31;5019619;28;1216;-77
2023/10/24 05:22:14;;;;;;;;;;;;;;;10.13;100.00;100135.91;5028383;28;1205;-78
2023/10/24 05:24:39;;;;;;;;;;;;;;;10.13;100.00;100138.50;5023669;28;1196;-79
2023/10/24 05:27:05;;;;;;;;;;;;;;;10.10;100.00;100140.41;5023534;28;1897;-78
2023/10/24 05:29:36;;;;;;;;;;;;;;;10.10;100.00;100137.00;5027994;28;1262;-79
2023/10/24 05:32:02;;;;;;;;;;;;;;;10.08;100.00;100129.34;5024239;28;1221;-78
2023/10/24 05:34:27;;;;;;;;;;;;;;;10.08;100.00;100137.13;5025805;28;1176;-78
2023/10/24 05:36:53;;;;;;;;;;;;;;;10.07;100.00;100130.31;5028651;28;1116;-79
2023/10/24 05:39:19;;;;;;;;;;;;;;;10.06;100.00;100133.88;5033828;28;967;-77
2023/10/24 05:41:44;;;;;;;;;;;;;;;10.05;100.00;100134.84;5028132;28;1058;-78
2023/10/24 05:44:09;;;;;;;;;;;;;;;10.01;100.00;100125.69;5011150;28;1248;-79
2023/10/24 05:46:35;;;;;;;;;;;;;;;10.03;100.00;100128.94;5034478;28;1898;-78
2023/10/24 05:49:00;;;;;;;;;;;;;;;10.02;100.00;100135.09;5014224;28;1181;-78
2023/10/24 05:51:27;;;;;;;;;;;;;;;10.01;100.00;100136.06;5031960;28;1313;-78
2023/10/24 05:53:53;;;;;;;;;;;;;;;10.01;100.00;100135.25;5025792;28;1174;-78
2023/10/24 05:56:19;;;;;;;;;;;;;;;9.99;100.00;100135.38;5031435;28;1277;-78
2023/10/24 05:58:44;;;;;;;;;;;;;;;10.02;100.00;100121.31;5023711;28;1234;-78
2023/10/24 06:01:09;;;;;;;;;;;;;;;9.98;100.00;100125.97;5011616;28;1289;-79
2023/10/24 06:03:35;;;;;;;;;;;;;;;9.99;100.00;100119.84;5010197;28;1357;-79
2023/10/24 06:06:00;;;;;;;;;;;;;;;9.98;100.00;100114.81;5014157;28;1894;-78
2023/10/24 06:08:25;;;;;;;;;;;;;;;9.98;100.00;100122.56;5026850;28;1387;-78
2023/10/24 06:10:57;;;;;;;;;;;;;;;9.98;100.00;100136.34;5026892;28;1112;-78
2023/10/24 06:13:22;;;;;;;;;;;;;;;9.99;100.00;100132.78;5030318;28;1189;-78
2023/10/24 06:15:47;;;;;;;;;;;;;;;9.99;100.00;100140.56;5009506;28;1578;-78
2023/10/24 06:18:13;;;;;;;;;;;;;;;9.99;100.00;100127.63;5008026;28;1201;-78
2023/10/24 06:20:38;;;;;;;;;;;;;;;9.98;100.00;100136.34;5015038;28;1324;-79
2023/10/24 06:23:05;;;;;;;;;;;;;;;9.98;100.00;100141.53;5026554;28;1190;-80
2023/10/24 06:25:35;;;;;;;;;;;;;;;9.99;100.00;100140.56;5020812;28;1898;-79
2023/10/24 06:28:00;;;;;;;;;;;;;;;9.98;100.00;100140.72;5024931;28;1347;-78
2023/10/24 06:30:25;;;;;;;;;;;;;;;9.97;100.00;100145.03;5025585;28;1234;-78
2023/10/24 06:32:51;;;;;;;;;;;;;;;9.96;100.00;100151.19;5026792;28;1137;-78
2023/10/24 06:35:16;;;;;;;;;;;;;;;9.97;100.00;100154.59;5004242;28;1281;-79
2023/10/24 06:37:41;;;;;;;;;;;;;;;9.97;100.00;100147.63;5004510;28;1252;-78
2023/10/24 06:40:08;;;;;;;;;;;;;;;9.97;100.00;100150.22;5017779;28;1528;-77
2023/10/24 06:42:33;;;;;;;;;;;;;;;9.97;100.00;100137.28;5032968;28;1371;-78
2023/10/24 06:44:58;;;;;;;;;;;;;;;9.97;100.00;100129.50;5035422;28;1242;-79
2023/10/24 06:47:23;;;;;;;;;;;;;;;9.97;100.00;100129.50;5034454;28;1952;-78
2023/10/24 06:49:48;;;;;;;;;;;;;;;9.98;100.00;100125.97;5025945;28;1416;-81
2023/10/24 06:52:14;;;;;;;;;;;;;;;9.98;100.00;100136.34;5018272;28;1482;-78
2023/10/24 06:54:39;;;;;;;;;;;;;;;9.97;100.00;100139.06;5012078;28;1186;-77
2023/10/24 06:57:04;;;;;;;;;;;;;;;9.98;100.00;100157.06;5016122;28;1587;-77
2023/10/24 06:59:29;;;;;;;;;;;;;;;9.98;100.00;100164.03;5032806;28;1216;-78
2023/10/24 07:01:55;;;;;;;;;;;;;;;9.98;100.00;100177.78;5029501;28;1193;-78
2023/10/24 07:04:20;;;;;;;;;;;;;;;9.98;100.00;100176.97;5027904;28;1297;-78
2023/10/24 07:06:45;;;;;;;;;;;;;;;9.99;100.00;100179.44;5032000;28;1878;-79
2023/10/24 07:09:10;;;;;;;;;;;;;;;10.01;100.00;100182.69;5029613;28;1693;-77
2023/10/24 07:11:35;;;;;;;;;;;;;;;10.03;100.00;100169.59;5029570;28;1218;-80
2023/10/24 07:14:01;;;;;;;;;;;;;;;9.97;100.00;100164.97;5008234;28;1383;-78
2023/10/24 07:16:27;;;;;;;;;;;;;;;9.98;100.00;100157.06;5012268;28;1258;-77
2023/10/24 07:18:52;;;;;;;;;;;;;;;9.98;100.00;100146.72;5026939;28;1073;-78
2023/10/24 07:21:17;;;;;;;;;;;;;;;9.99;100.00;100148.34;5006837;28;1378;-78
2023/10/24 07:23:42;;;;;;;;;;;;;;;10.01;100.00;100150.78;5029145;28;1178;-78
2023/10/24 07:26:07;;;;;;;;;;;;;;;9.99;100.00;100147.53;5022001;28;1890;-78
2023/10/24 07:28:33;;;;;;;;;;;;;;;10.01;100.00;100150.78;5023845;28;1031;-78
2023/10/24 07:30:58;;;;;;;;;;;;;;;9.98;100.00;100141.53;5007637;28;1297;-78
2023/10/24 07:33:23;;;;;;;;;;;;;;;9.97;100.00;100150.22;5003167;28;1140;-78
2023/10/24 07:35:50;;;;;;;;;;;;;;;9.97;100.00;100145.03;5024950;28;1083;-78
2023/10/24 07:38:15;;;;;;;;;;;;;;;9.94;100.00;100140.16;5024978;28;1058;-78
2023/10/24 07:40:41;;;;;;;;;;;;;;;9.95;100.00;100136.59;5007650;28;1172;-78
2023/10/24 07:43:07;;;;;;;;;;;;;;;9.96;100.00;100133.06;5008618;28;1773;-78
2023/10/24 07:45:32;;;;;;;;;;;;;;;9.99;100.00;100132.78;5026714;28;1957;-78
2023/10/24 07:47:57;;;;;;;;;;;;;;;9.99;100.00;100140.56;5012535;28;1253;-77
2023/10/24 07:50:23;;;;;;;;;;;;;;;10.00;100.00;100155.16;5024464;28;1312;-78
2023/10/24 07:52:48;;;;;;;;;;;;;;;10.02;100.00;100153.22;5030400;28;1363;-78
2023/10/24 07:55:13;;;;;;;;;;;;;;;10.03;100.00;100149.69;5021854;28;1392;-79
2023/10/24 07:57:38;;;;;;;;;;;;;;;10.06;100.00;100144.22;5006821;28;1376;-78
2023/10/24 08:00:04;;;;;;;;;;;;;;;10.08;100.00;100134.53;5033039;28;1340;-78
2023/10/24 08:02:29;;;;;;;;;;;;;;;10.12;100.00;100142.88;5005731;28;1316;-77
2023/10/24 08:04:54;;;;;;;;;;;;;;;10.15;100.00;100137.41;5027666;28;1152;-78
2023/10/24 08:07:19;;;;;;;;;;;;;;;10.19;100.00;100127.56;5030200;28;1955;-77
2023/10/24 08:09:45;;;;;;;;;;;;;;;10.22;100.00;100128.13;5008630;28;1395;-79
2023/10/24 08:12:11;;;;;;;;;;;;;;;10.26;100.00;100123.47;5026366;28;1320;-78
2023/10/24 08:14:36;;;;;;;;;;;;;;;10.29;100.00;100131.00;5027379;28;1479;-78
2023/10/24 08:17:03;;;;;;;;;;;;;;;10.33;100.00;100129.75;5022029;28;1252;-77
2023/10/24 08:19:28;;;;;;;;;;;;;;;10.34;100.00;100121.84;5021924;28;1169;-79
2023/10/24 08:21:53;;;;;;;;;;;;;;;10.38;100.00;100119.78;5012920;28;1258;-77
2023/10/24 08:24:19;;;;;;;;;;;;;;;10.39;100.00;100129.19;5043487;28;1319;-78
2023/10/24 08:26:44;;;;;;;;;;;;;;;10.39;100.00;100129.19;5009036;28;1955;-78
2023/10/24 08:29:09;;;;;;;;;;;;;;;10.39;100.00;100134.38;5027732;28;1499;-78
2023/10/24 08:31:34;;;;;;;;;;;;;;;10.41;100.00;100140.25;5025147;28;1254;-77
2023/10/24 08:34:00;;;;;;;;;;;;;;;10.43;100.00;100145.28;5032880;28;1135;-78
2023/10/24 08:36:25;;;;;;;;;;;;;;;10.44;100.00;100147.75;5029862;28;1402;-79
2023/10/24 08:38:50;;;;;;;;;;;;;;;10.48;100.00;100143.91;5028954;28;1562;-78
2023/10/24 08:41:15;;;;;;;;;;;;;;;10.51;100.00;100133.25;5027117;28;1265;-79
2023/10/24 08:43:41;;;;;;;;;;;;;;;10.58;100.00;100134.31;5026913;28;1246;-78
2023/10/24 08:46:07;;;;;;;;;;;;;;;10.67;100.00;100142.19;5026023;28;1898;-78
2023/10/24 08:48:34;;;;;;;;;;;;;;;10.74;100.00;100146.69;5010535;28;1343;-78
2023/10/24 08:50:59;;;;;;;;;;;;;;;10.87;100.00;100154.94;5007583;28;1306;-78
2023/10/24 08:53:24;;;;;;;;;;;;;;;10.92;100.00;100166.69;5027912;28;1273;-78
2023/10/24 08:55:57;;;;;;;;;;;;;;;10.96;100.00;100174.03;5024697;28;1216;-79
2023/10/24 08:58:23;;;;;;;;;;;;;;;10.99;100.00;100176.34;5018402;28;1209;-78
2023/10/24 09:00:48;;;;;;;;;;;;;;;10.98;100.00;100179.06;5027756;28;1208;-77
2023/10/24 09:03:17;;;;;;;;;;;;;;;10.98;100.00;100177.28;5026593;28;1213;-77
2023/10/24 09:05:46;;;;;;;;;;;;;;;10.98;100.00;100169.50;5031495;28;1926;-77
2023/10/24 09:08:11;;;;;;;;;;;;;;;10.98;100.00;100161.72;5030632;28;1327;-78
2023/10/24 09:10:37;;;;;;;;;;;;;;;10.97;100.00;100162.69;5011982;28;1315;-78
2023/10/24 09:13:08;;;;;;;;;;;;;;;10.94;100.00;100165.56;5027072;28;1359;-77
2023/10/24 09:15:37;;;;;;;;;;;;;;;10.91;100.00;100150.28;5025580;28;1492;-77
2023/10/24 09:18:05;;;;;;;;;;;;;;;10.90;100.00;100148.66;5015628;28;1315;-78
2023/10/24 09:20:34;;;;;;;;;;;;;;;10.91;100.00;100147.69;5026172;28;1221;-79
2023/10/24 09:23:06;;;;;;;;;;;;;;;10.94;100.00;100144.81;5028075;28;1483;-79
2023/10/24 09:25:32;;;;;;;;;;;;;;;10.92;100.00;100144.16;5028406;28;1965;-78
2023/10/24 09:28:16;;;;;;;;;;;;;;;10.93;100.00;100148.38;5026397;28;1142;-77
2023/10/24 09:30:41;;;;;;;;;;;;;;;10.96;100.00;100142.91;5012907;28;1413;-79
2023/10/24 09:33:07;;;;;;;;;;;;;;;10.98;100.00;100145.34;5014121;28;1370;-78
2023/10/24 09:35:32;;;;;;;;;;;;;;;10.99;100.00;100142.59;5045529;28;1283;-78
2023/10/24 09:37:58;;;;;;;;;;;;;;;10.98;100.00;100140.97;5028128;28;1096;-79
2023/10/24 09:40:32;;;;;;;;;;;;;;;10.99;100.00;100146.97;5007755;28;1418;-78
2023/10/24 09:42:57;;;;;;;;;;;;;;;11.02;100.00;100146.69;5029195;28;1087;-78
2023/10/24 09:45:22;;;;;;;;;;;;;;;11.06;100.00;100142.84;5027826;28;1235;-78
2023/10/24 09:47:49;;;;;;;;;;;;;;;11.08;100.00;100146.94;5018774;28;1930;-77
2023/10/24 09:50:15;;;;;;;;;;;;;;;11.12;100.00;100143.06;5026215;28;1430;-77
2023/10/24 09:52:40;;;;;;;;;;;;;;;11.16;100.00;100143.59;5022670;28;1249;-78
2023/10/24 09:55:05;;;;;;;;;;;;;;;11.21;100.00;100150.97;5023698;28;1231;-78
2023/10/24 09:57:31;;;;;;;;;;;;;;;11.25;100.00;100157.50;5007628;28;1242;-79
2023/10/24 09:59:58;;;;;;;;;;;;;;;11.28;100.00;100157.19;5029881;28;1416;-78
2023/10/24 10:02:24;;;;;;;;;;;;;;;11.28;100.00;100160.59;5030179;28;1236;-78
2023/10/24 10:04:50;;;;;;;;;;;;;;;11.33;100.00;100149.78;5030909;28;1387;-78
2023/10/24 10:07:17;;;;;;;;;;;;;;;11.39;100.00;100144.81;5009485;28;1890;-78
2023/10/24 10:09:46;;;;;;;;;;;;;;;11.43;100.00;100130.59;5033249;28;1093;-77
2023/10/24 10:12:12;;;;;;;;;;;;;;;11.46;100.00;100139.84;5008400;28;1375;-78
2023/10/24 10:14:49;;;;;;;;;;;;;;;11.47;100.00;100141.50;5033342;28;1138;-78
2023/10/24 10:17:33;;;;;;;;;;;;;;;11.48;100.00;100135.34;5029572;28;1198;-78
2023/10/24 10:19:59;;;;;;;;;;;;;;;11.50;100.00;100130.00;5042939;28;1163;-78
2023/10/24 10:22:28;;;;;;;;;;;;;;;11.50;100.00;100136.00;5032142;28;1169;-78
2023/10/24 10:25:01;;;;;;;;;;;;;;;11.51;100.00;100137.63;5009925;28;1246;-78
2023/10/24 10:27:35;;;;;;;;;;;;;;;11.51;100.00;100137.63;5024705;28;1902;-78
2023/10/24 10:30:00;;;;;;;;;;;;;;;11.52;100.00;100131.47;5024776;28;1316;-78
2023/10/24 10:32:36;;;;;;;;;;;;;;;11.53;100.00;100146.09;5014941;28;1480;-78
2023/10/24 10:35:01;;;;;;;;;;;;;;;11.57;100.00;100137.03;5025314;28;1343;-77
2023/10/24 10:37:30;;;;;;;;;;;;;;;11.55;100.00;100118.19;5006082;28;1588;-78
2023/10/24 10:40:15;;;;;;;;;;;;;;;11.57;100.00;100125.84;5009946;28;1307;-78
2023/10/24 10:42:45;;;;;;;;;;;;;;;11.60;100.00;100131.56;5009037;28;1208;-78
2023/10/24 10:45:26;;;;;;;;;;;;;;;11.60;100.00;100134.16;5023762;28;1126;-79
2023/10/24 10:47:52;;;;;;;;;;;;;;;11.62;100.00;100126.22;5021524;28;2077;-78
2023/10/24 10:50:28;;;;;;;;;;;;;;;11.65;100.00;100131.94;5020042;28;1342;-77
2023/10/24 10:53:02;;;;;;;;;;;;;;;11.69;100.00;100125.44;5024955;28;1245;-78
2023/10/24 10:55:30;;;;;;;;;;;;;;;11.72;100.00;100118.34;5009798;28;1302;-78
2023/10/24 10:57:56;;;;;;;;;;;;;;;11.72;100.00;100126.13;5016403;28;1183;-78
2023/10/24 11:00:25;;;;;;;;;;;;;;;11.69;100.00;100112.47;5031912;28;1224;-78
2023/10/24 11:03:01;;;;;;;;;;;;;;;11.69;100.00;100120.25;5028172;28;1229;-78
2023/10/24 11:05:40;;;;;;;;;;;;;;;11.72;100.00;100113.97;5005733;28;1291;-78
2023/10/24 11:08:10;;;;;;;;;;;;;;;11.74;100.00;100114.63;5029987;28;1260;-78
2023/10/24 11:10:52;;;;;;;;;;;;;;;11.75;100.00;100112.84;5043076;28;1540;-78
2023/10/24 11:13:30;;;;;;;;;;;;;;;11.74;100.00;100106.00;5025639;28;1127;-78
2023/10/24 11:15:55;;;;;;;;;;;;;;;11.75;100.00;100102.44;5019843;28;1265;-78
2023/10/24 11:18:20;;;;;;;;;;;;;;;11.75;100.00;100103.25;5014038;28;1285;-78
2023/10/24 11:20:45;;;;;;;;;;;;;;;11.75;100.00;100097.25;5031401;28;1356;-78
2023/10/24 11:23:11;;;;;;;;;;;;;;;11.72;100.00;100100.16;5021775;28;1304;-78
2023/10/24 11:25:36;;;;;;;;;;;;;;;11.69;100.00;100109.88;5027850;28;1902;-78
2023/10/24 11:28:06;;;;;;;;;;;;;;;11.65;100.00;100105.13;5027523;28;1111;-78
2023/10/24 11:30:32;;;;;;;;;;;;;;;11.64;100.00;100106.94;5027103;28;1187;-79
2023/10/24 11:32:57;;;;;;;;;;;;;;;11.62;100.00;100116.63;5008928;28;1228;-78
2023/10/24 11:35:22;;;;;;;;;;;;;;;11.60;100.00;100105.59;5028418;28;1157;-77
2023/10/24 11:37:47;;;;;;;;;;;;;;;11.59;100.00;100113.53;5022646;28;1133;-78
2023/10/24 11:40:13;;;;;;;;;;;;;;;11.55;100.00;100118.19;5024980;28;1121;-78
2023/10/24 11:42:38;;;;;;;;;;;;;;;11.52;100.00;100108.09;5004006;28;1282;-78
2023/10/24 11:45:03;;;;;;;;;;;;;;;11.48;100.00;100111.16;5007767;28;1272;-79
2023/10/24 11:47:28;;;;;;;;;;;;;;;11.49;100.00;100113.59;5022839;28;1972;-79
2023/10/24 11:49:55;;;;;;;;;;;;;;;11.48;100.00;100101.59;5008151;28;1360;-78
2023/10/24 11:52:20;;;;;;;;;;;;;;;11.52;100.00;100108.09;5011026;28;1230;-77
2023/10/24 11:54:51;;;;;;;;;;;;;;;11.56;100.00;100101.66;5026022;28;1062;-77
2023/10/24 11:57:17;;;;;;;;;;;;;;;11.61;100.00;100091.63;5014681;28;1458;-78
2023/10/24 11:59:42;;;;;;;;;;;;;;;11.59;100.00;100097.94;5031901;28;1324;-78
2023/10/24 12:02:07;;;;;;;;;;;;;;;11.59;100.00;100106.56;5034071;28;1304;-78
2023/10/24 12:04:32;;;;;;;;;;;;;;;11.54;100.00;100106.19;5035084;28;1093;-78
2023/10/24 12:07:05;;;;;;;;;;;;;;;11.50;100.00;100110.03;5014955;28;1967;-78
2023/10/24 12:09:34;;;;;;;;;;;;;;;11.48;100.00;100096.38;5008677;28;1334;-78
2023/10/24 12:12:03;;;;;;;;;;;;;;;11.45;100.00;100101.88;5013215;28;1297;-78
2023/10/24 12:14:28;;;;;;;;;;;;;;;11.39;100.00;100107.66;5034536;28;1110;-78
2023/10/24 12:16:53;;;;;;;;;;;;;;;11.38;100.00;100095.66;5037195;28;1142;-78
2023/10/24 12:19:18;;;;;;;;;;;;;;;11.30;100.00;100087.78;5029244;28;1185;-78
2023/10/24 12:21:43;;;;;;;;;;;;;;;11.28;100.00;100094.88;5033339;28;1188;-78
2023/10/24 12:24:09;;;;;;;;;;;;;;;11.26;100.00;100096.81;5034090;28;1085;-79
2023/10/24 12:26:37;;;;;;;;;;;;;;;11.23;100.00;100091.91;5017549;28;1965;-78
2023/10/24 12:29:05;;;;;;;;;;;;;;;11.23;100.00;100099.69;5024735;28;1233;-79
2023/10/24 12:31:30;;;;;;;;;;;;;;;11.22;100.00;100087.69;5027090;28;1156;-78
2023/10/24 12:33:55;;;;;;;;;;;;;;;11.19;100.00;100095.78;5030556;28;1309;-79